Time;durP1;ratioP1;P1;durP2;ratioP2;P2;SDS_P1;SDS_P2;PMS_P1;PMS_P2;Temp;Humidity;BMP_temperature;BMP_pressure;BME280_temperature;BME280_humidity;BME280_pressure;Samples;Min_cycle;Max_cycle;Signal;HPM_P1;HPM_P2
2023/08/04 00:00:37;;;;;;;9.55;4.10;;;;;;;14.54;100.00;100845.25;5094332;28;20526;-58
2023/08/04 00:03:03;;;;;;;10.43;3.88;;;;;;;15.02;100.00;100924.16;5076196;28;20040;-54
2023/08/04 00:05:28;;;;;;;10.07;3.85;;;;;;;15.06;100.00;100915.13;5093859;28;20387;-52
2023/08/04 00:07:54;;;;;;;12.45;4.55;;;;;;;15.13;100.00;100922.69;5094212;28;20494;-52
2023/08/04 00:10:19;;;;;;;14.05;4.82;;;;;;;15.07;100.00;100901.78;5082791;28;20038;-54
2023/08/04 00:12:44;;;;;;;9.50;4.45;;;;;;;15.14;100.00;100910.28;5114376;28;20394;-56
2023/08/04 00:15:10;;;;;;;10.43;4.43;;;;;;;15.23;100.00;100923.91;5114114;28;20032;-56
2023/08/04 00:17:38;;;;;;;12.95;4.10;;;;;;;14.85;100.00;100849.91;5114569;28;20039;-54
2023/08/04 00:20:04;;;;;;;12.13;4.20;;;;;;;15.23;100.00;100918.63;5114126;28;20032;-56
2023/08/04 00:22:29;;;;;;;12.40;3.80;;;;;;;15.23;100.00;100931.03;5113627;28;20380;-54
2023/08/04 00:24:55;;;;;;;11.65;4.10;;;;;;;14.84;100.00;100857.00;5114011;28;20050;-53
2023/08/04 00:27:20;;;;;;;14.93;4.35;;;;;;;15.26;100.00;100920.28;5103219;28;20044;-50
2023/08/04 00:29:45;;;;;;;10.27;4.20;;;;;;;15.24;100.00;100911.53;5093549;28;20543;-57
2023/08/04 00:32:11;;;;;;;10.75;3.85;;;;;;;15.01;100.00;100880.00;5093829;28;20501;-54
2023/08/04 00:34:36;;;;;;;7.35;4.18;;;;;;;15.01;100.00;100878.22;5093801;28;20037;-57
2023/08/04 00:37:01;;;;;;;13.55;4.45;;;;;;;14.79;100.00;100844.91;5094012;28;20059;-54
2023/08/04 00:39:27;;;;;;;13.35;5.07;;;;;;;15.11;100.00;100918.38;5093633;28;20399;-54
2023/08/04 00:41:52;;;;;;;12.60;4.40;;;;;;;15.08;100.00;100918.53;5093296;28;20039;-54
2023/08/04 00:44:17;;;;;;;9.68;4.80;;;;;;;14.75;100.00;100864.53;5092239;28;20398;-53
2023/08/04 00:46:43;;;;;;;13.45;4.32;;;;;;;14.91;100.00;100900.81;5093331;28;20086;-52
2023/08/04 00:49:09;;;;;;;12.02;4.55;;;;;;;14.65;100.00;100849.09;5075538;28;20035;-55
2023/08/04 00:51:35;;;;;;;11.25;4.20;;;;;;;14.68;100.00;100847.25;5074973;28;20039;-55
2023/08/04 00:54:01;;;;;;;10.32;4.93;;;;;;;14.38;100.00;100789.53;5075337;28;20036;-52
2023/08/04 00:56:28;;;;;;;14.48;4.25;;;;;;;15.22;100.00;100926.66;5093067;28;20399;-54
2023/08/04 00:58:53;;;;;;;9.73;3.97;;;;;;;15.25;100.00;100921.22;5074930;28;20040;-52
2023/08/04 01:01:19;;;;;;;13.77;4.18;;;;;;;15.22;100.00;100921.34;5092480;28;20119;-54
2023/08/04 01:03:44;;;;;;;10.70;4.03;;;;;;;14.98;100.00;100867.75;5074849;28;20028;-54
2023/08/04 01:06:12;;;;;;;11.10;3.65;;;;;;;15.40;100.00;100943.44;5093524;28;20047;-53
2023/08/04 01:08:40;;;;;;;10.90;3.50;;;;;;;14.99;100.00;100868.63;5092565;28;20036;-55
2023/08/04 01:11:09;;;;;;;17.05;4.25;;;;;;;15.40;100.00;100928.41;5074553;28;20036;-55
2023/08/04 01:13:35;;;;;;;14.38;3.85;;;;;;;15.03;100.00;100859.59;5093157;28;20039;-53
2023/08/04 01:16:00;;;;;;;13.63;3.72;;;;;;;15.47;100.00;100937.78;5074401;28;20146;-53
2023/08/04 01:18:26;;;;;;;9.50;3.47;;;;;;;15.38;100.00;100916.97;5074776;28;20044;-55
2023/08/04 01:20:51;;;;;;;8.68;3.75;;;;;;;15.41;100.00;100930.09;5092487;28;20483;-53
2023/08/04 01:23:17;;;;;;;8.38;4.43;;;;;;;15.39;100.00;100931.97;5074341;28;20475;-54
2023/08/04 01:25:43;;;;;;;10.40;4.25;;;;;;;15.38;100.00;100918.81;5074319;28;20039;-54
2023/08/04 01:28:12;;;;;;;10.52;3.72;;;;;;;15.38;100.00;100921.47;5092968;28;20372;-55
2023/08/04 01:30:38;;;;;;;12.23;4.50;;;;;;;15.06;100.00;100867.41;5092607;28;20036;-52
2023/08/04 01:33:04;;;;;;;6.82;3.83;;;;;;;15.03;100.00;100862.25;5074084;28;20024;-53
2023/08/04 01:35:29;;;;;;;10.25;4.28;;;;;;;15.47;100.00;100952.84;5092610;28;20538;-55
2023/08/04 01:37:55;;;;;;;11.52;4.35;;;;;;;15.40;100.00;100923.09;5092422;28;20162;-53
2023/08/04 01:40:20;;;;;;;10.48;3.92;;;;;;;15.45;100.00;100936.09;5092382;28;20372;-55
2023/08/04 01:42:46;;;;;;;9.10;4.03;;;;;;;15.45;100.00;100938.75;5091155;28;20032;-53
2023/08/04 01:45:11;;;;;;;8.32;4.10;;;;;;;15.43;100.00;100945.94;5092540;28;20395;-53
2023/08/04 01:47:38;;;;;;;8.95;3.95;;;;;;;15.34;100.00;100935.78;5092246;28;20410;-56
2023/08/04 01:50:08;;;;;;;9.10;4.57;;;;;;;15.35;100.00;100945.47;5091597;28;20425;-52
2023/08/04 01:52:33;;;;;;;13.68;4.57;;;;;;;15.00;100.00;100889.75;5092525;28;20040;-51
2023/08/04 01:54:59;;;;;;;13.35;4.50;;;;;;;14.81;100.00;100864.22;5074296;28;20052;-54
2023/08/04 01:57:24;;;;;;;8.07;4.93;;;;;;;15.25;100.00;100941.56;5092560;28;20134;-58
2023/08/04 01:59:49;;;;;;;18.90;4.82;;;;;;;14.86;100.00;100878.97;5073970;28;20465;-53
2023/08/04 02:02:15;;;;;;;13.98;4.47;;;;;;;14.52;100.00;100823.28;5092264;28;20111;-53
2023/08/04 02:04:40;;;;;;;10.90;4.50;;;;;;;15.27;100.00;100945.84;5092185;28;20495;-52
2023/08/04 02:07:05;;;;;;;13.95;4.68;;;;;;;15.22;100.00;100950.53;5091370;28;20486;-55
2023/08/04 02:09:32;;;;;;;8.52;4.75;;;;;;;15.20;100.00;100955.06;5092078;28;20407;-53
2023/08/04 02:11:58;;;;;;;10.07;4.93;;;;;;;14.72;100.00;100880.56;5092358;28;20032;-57
2023/08/04 02:14:23;;;;;;;11.77;4.22;;;;;;;14.57;100.00;100876.88;5092209;28;20036;-57
2023/08/04 02:16:48;;;;;;;11.02;4.30;;;;;;;14.95;100.00;100966.00;5074210;28;20103;-56
2023/08/04 02:19:14;;;;;;;11.20;4.63;;;;;;;14.50;100.00;100889.59;5092286;28;20062;-56
2023/08/04 02:21:39;;;;;;;8.07;4.38;;;;;;;14.75;100.00;100952.84;5093676;28;20041;-54
2023/08/04 02:24:05;;;;;;;9.15;4.05;;;;;;;14.29;100.00;100876.44;5095944;28;20394;-54
2023/08/04 02:26:30;;;;;;;9.85;4.10;;;;;;;14.65;100.00;100947.09;5096119;28;20036;-56
2023/08/04 02:28:56;;;;;;;10.80;4.75;;;;;;;14.64;100.00;100956.00;5077937;28;20457;-54
2023/08/04 02:31:23;;;;;;;7.85;4.15;;;;;;;14.31;100.00;100907.22;5078016;28;20038;-57
2023/08/04 02:33:49;;;;;;;9.82;4.18;;;;;;;14.72;100.00;100983.91;5077971;28;20058;-58
2023/08/04 02:36:14;;;;;;;8.63;3.58;;;;;;;14.38;100.00;100924.59;5077643;28;20371;-53
2023/08/04 02:38:40;;;;;;;8.40;4.10;;;;;;;14.61;100.00;100960.59;5077592;28;20081;-54
2023/08/04 02:41:08;;;;;;;6.43;4.00;;;;;;;14.27;100.00;100908.31;5095291;28;20127;-52
2023/08/04 02:43:33;;;;;;;5.10;3.45;;;;;;;14.64;100.00;100971.91;5095981;28;20039;-52
2023/08/04 02:45:58;;;;;;;10.00;4.07;;;;;;;14.20;100.00;100911.28;5095824;28;20039;-55
2023/08/04 02:48:24;;;;;;;7.95;3.70;;;;;;;14.57;100.00;100983.69;5095817;28;20047;-54
2023/08/04 02:51:03;;;;;;;8.65;4.00;;;;;;;14.16;100.00;100931.75;5095546;28;20046;-58
2023/08/04 02:53:29;;;;;;;7.90;4.22;;;;;;;14.55;100.00;100982.94;5077580;28;20417;-55
2023/08/04 02:55:55;;;;;;;11.18;4.68;;;;;;;14.20;100.00;100922.75;5095505;28;20036;-51
2023/08/04 02:58:21;;;;;;;9.60;4.03;;;;;;;14.67;100.00;100988.56;5095072;28;20502;-54
2023/08/04 03:00:46;;;;;;;7.88;4.07;;;;;;;14.72;100.00;100989.22;5094289;28;20032;-50
2023/08/04 03:03:12;;;;;;;7.57;4.00;;;;;;;14.67;100.00;100973.53;5094892;28;20432;-54
2023/08/04 03:05:37;;;;;;;8.55;4.07;;;;;;;14.81;100.00;100997.59;5095366;28;20531;-53
2023/08/04 03:08:02;;;;;;;11.35;4.57;;;;;;;14.84;100.00;100988.63;5095336;28;20043;-55
2023/08/04 03:10:28;;;;;;;7.82;4.40;;;;;;;14.86;100.00;100994.72;5095556;28;20061;-51
2023/08/04 03:12:53;;;;;;;7.95;4.00;;;;;;;14.52;100.00;100943.34;5094206;28;20063;-55
2023/08/04 03:15:18;;;;;;;11.57;4.30;;;;;;;14.92;100.00;100997.94;5095681;28;20141;-54
2023/08/04 03:17:44;;;;;;;8.10;4.80;;;;;;;14.57;100.00;100932.50;5095045;28;20086;-55
2023/08/04 03:20:09;;;;;;;10.48;4.57;;;;;;;14.56;100.00;100913.09;5094806;28;20028;-52
2023/08/04 03:22:35;;;;;;;7.18;4.45;;;;;;;15.07;100.00;100996.34;5094480;28;20056;-53
2023/08/04 03:25:00;;;;;;;10.57;4.82;;;;;;;14.99;100.00;100979.97;5095383;28;20036;-55
2023/08/04 03:27:27;;;;;;;7.53;4.60;;;;;;;14.98;100.00;100972.94;5076742;28;20437;-56
2023/08/04 03:29:52;;;;;;;12.70;4.68;;;;;;;15.11;100.00;100997.94;5094822;28;20058;-55
2023/08/04 03:32:18;;;;;;;10.18;4.78;;;;;;;14.68;100.00;100935.53;5076497;28;20039;-54
2023/08/04 03:34:43;;;;;;;9.55;4.28;;;;;;;15.09;100.00;101000.63;5094776;28;20035;-55
2023/08/04 03:37:08;;;;;;;10.95;4.28;;;;;;;14.38;100.00;100884.00;5094680;28;20044;-57
2023/08/04 03:39:34;;;;;;;10.80;4.35;;;;;;;15.12;100.00;101008.44;5094000;28;20475;-55
2023/08/04 03:41:59;;;;;;;7.35;4.18;;;;;;;15.11;100.00;101004.09;5094721;28;20471;-55
2023/08/04 03:44:24;;;;;;;6.15;3.97;;;;;;;14.86;100.00;100973.50;5094574;28;20040;-53
2023/08/04 03:46:50;;;;;;;8.35;4.65;;;;;;;14.72;100.00;100945.03;5094562;28;20543;-55
2023/08/04 03:49:15;;;;;;;8.07;4.78;;;;;;;15.10;100.00;101010.31;5094704;28;20078;-53
2023/08/04 03:51:40;;;;;;;6.57;4.15;;;;;;;14.89;100.00;100981.31;5094422;28;20501;-54
2023/08/04 03:54:06;;;;;;;10.88;5.03;;;;;;;14.67;100.00;100947.06;5076364;28;20028;-56
2023/08/04 03:56:31;;;;;;;8.32;4.75;;;;;;;14.99;100.00;101001.16;5093709;28;20127;-55
2023/08/04 03:58:57;;;;;;;8.45;4.47;;;;;;;14.96;100.00;101011.91;5094306;28;20411;-55
2023/08/04 04:01:22;;;;;;;9.10;4.47;;;;;;;15.00;100.00;101003.72;5094384;28;20051;-57
2023/08/04 04:03:47;;;;;;;7.68;4.97;;;;;;;14.88;100.00;100985.78;5076023;28;20036;-56
2023/08/04 04:06:13;;;;;;;8.32;4.18;;;;;;;15.14;100.00;101034.91;5094553;28;20111;-55
2023/08/04 04:08:38;;;;;;;5.57;4.22;;;;;;;14.70;100.00;100954.00;5094302;28;20043;-57
2023/08/04 04:11:04;;;;;;;7.32;5.10;;;;;;;14.71;100.00;100951.25;5094367;28;20032;-52
2023/08/04 04:13:29;;;;;;;6.82;4.40;;;;;;;15.11;100.00;101024.44;5075669;28;20047;-52
2023/08/04 04:15:54;;;;;;;6.78;4.80;;;;;;;15.15;100.00;101028.63;5094127;28;20051;-57
2023/08/04 04:18:20;;;;;;;8.70;4.85;;;;;;;14.83;100.00;100974.53;5094103;28;20032;-57
2023/08/04 04:20:45;;;;;;;6.53;4.88;;;;;;;14.83;100.00;100974.53;5093821;28;20391;-56
2023/08/04 04:23:10;;;;;;;8.32;4.85;;;;;;;15.09;100.00;101023.66;5093700;28;20044;-53
2023/08/04 04:25:35;;;;;;;8.80;4.43;;;;;;;14.80;100.00;100979.97;5093905;28;20040;-56
2023/08/04 04:28:01;;;;;;;8.35;4.30;;;;;;;14.73;100.00;100951.19;5092964;28;20062;-56
2023/08/04 04:30:26;;;;;;;5.93;3.80;;;;;;;15.22;100.00;101043.34;5093823;28;20395;-50
2023/08/04 04:32:51;;;;;;;8.18;4.60;;;;;;;15.27;100.00;101056.38;5093657;28;20491;-56
2023/08/04 04:35:17;;;;;;;7.18;4.55;;;;;;;14.87;100.00;100977.91;5093488;28;20028;-56
2023/08/04 04:37:42;;;;;;;8.60;4.75;;;;;;;15.31;100.00;101044.69;5093656;28;20028;-57
2023/08/04 04:40:08;;;;;;;7.57;4.90;;;;;;;15.35;100.00;101051.56;5093692;28;20106;-53
2023/08/04 04:42:33;;;;;;;9.63;4.95;;;;;;;15.28;100.00;101035.09;5075707;28;20098;-56
2023/08/04 04:45:00;;;;;;;8.48;4.85;;;;;;;15.04;100.00;100992.06;5091912;28;20032;-55
2023/08/04 04:47:25;;;;;;;9.20;4.40;;;;;;;15.39;100.00;101063.72;5093071;28;20081;-53
2023/08/04 04:49:50;;;;;;;8.65;5.15;;;;;;;15.48;100.00;101068.63;5075238;28;20031;-53
2023/08/04 04:52:29;;;;;;;8.13;4.65;;;;;;;15.13;100.00;101006.66;5093421;28;20043;-52
2023/08/04 04:54:55;;;;;;;9.18;5.28;;;;;;;15.50;100.00;101074.75;5093373;28;20032;-54
2023/08/04 04:57:21;;;;;;;7.72;4.22;;;;;;;15.41;100.00;101060.06;5093163;28;20046;-56
2023/08/04 04:59:46;;;;;;;7.75;4.20;;;;;;;15.48;100.00;101071.28;5075164;28;20043;-52
2023/08/04 05:02:11;;;;;;;5.82;3.67;;;;;;;15.10;100.00;101010.31;5092621;28;20036;-55
2023/08/04 05:04:37;;;;;;;6.88;3.40;;;;;;;15.15;100.00;101010.09;5093106;28;20039;-54
2023/08/04 05:07:02;;;;;;;5.50;3.33;;;;;;;15.56;100.00;101082.38;5092914;28;20098;-55
2023/08/04 05:09:27;;;;;;;5.57;3.03;;;;;;;15.53;100.00;101078.06;5093220;28;20038;-57
2023/08/04 05:11:53;;;;;;;6.13;2.80;;;;;;;15.30;100.00;101046.47;5093149;28;20032;-55
2023/08/04 05:14:18;;;;;;;3.78;2.90;;;;;;;15.28;100.00;101031.56;5093142;28;20051;-53
2023/08/04 05:16:45;;;;;;;4.35;2.80;;;;;;;15.53;100.00;101090.47;5092290;28;20047;-54
2023/08/04 05:19:10;;;;;;;3.75;2.40;;;;;;;15.26;100.00;101071.44;5092691;28;20036;-51
2023/08/04 05:21:35;;;;;;;3.95;2.72;;;;;;;15.46;100.00;101110.25;5092472;28;20048;-57
2023/08/04 05:24:01;;;;;;;2.88;2.33;;;;;;;15.43;100.00;101105.09;5092692;28;20120;-53
2023/08/04 05:26:26;;;;;;;3.65;2.85;;;;;;;15.38;100.00;101099.16;5074635;28;20123;-53
2023/08/04 05:28:51;;;;;;;6.20;2.80;;;;;;;15.26;100.00;101071.44;5092559;28;20044;-56
2023/08/04 05:31:17;;;;;;;4.22;3.00;;;;;;;15.39;100.00;101103.53;5074506;28;20036;-54
2023/08/04 05:33:42;;;;;;;5.47;3.40;;;;;;;15.47;100.00;101118.16;5106182;28;20134;-57
2023/08/04 05:36:08;;;;;;;7.88;3.00;;;;;;;15.49;100.00;101116.31;5112792;28;20032;-56
2023/08/04 05:38:34;;;;;;;5.35;3.22;;;;;;;15.33;100.00;101088.75;5112978;28;20071;-53
2023/08/04 05:41:04;;;;;;;5.97;3.17;;;;;;;15.42;100.00;101109.53;5112929;28;20066;-52
2023/08/04 05:43:30;;;;;;;4.70;3.20;;;;;;;15.03;100.00;101042.50;5112883;28;20142;-53
2023/08/04 05:45:59;;;;;;;7.22;3.33;;;;;;;15.01;100.00;101037.25;5094531;28;20534;-54
2023/08/04 05:48:24;;;;;;;7.28;4.00;;;;;;;15.06;100.00;101045.84;5113018;28;20031;-53
2023/08/04 05:50:53;;;;;;;6.80;3.60;;;;;;;15.12;100.00;101058.81;5096396;28;20046;-57
2023/08/04 05:53:19;;;;;;;5.00;3.70;;;;;;;15.14;100.00;101048.16;5092250;28;20036;-55
2023/08/04 05:55:44;;;;;;;7.15;3.17;;;;;;;15.57;100.00;101123.91;5091663;28;20032;-55
2023/08/04 05:58:09;;;;;;;7.28;3.63;;;;;;;15.25;100.00;101060.88;5092124;28;20120;-54
2023/08/04 06:00:35;;;;;;;7.50;3.35;;;;;;;15.69;100.00;101118.00;5091471;28;20081;-52
2023/08/04 06:03:00;;;;;;;7.47;3.92;;;;;;;15.57;100.00;101084.09;5091315;28;20055;-51
2023/08/04 06:05:26;;;;;;;7.95;3.22;;;;;;;15.82;100.00;101119.09;5091788;28;20047;-51
2023/08/04 06:07:52;;;;;;;6.68;3.42;;;;;;;15.55;100.00;101062.09;5092148;28;20376;-56
2023/08/04 06:10:19;;;;;;;14.80;4.20;;;;;;;15.57;100.00;101061.09;5092422;28;20035;-55
2023/08/04 06:12:44;;;;;;;6.10;3.10;;;;;;;15.96;100.00;101102.50;5092148;28;20028;-54
2023/08/04 06:15:10;;;;;;;7.80;3.20;;;;;;;16.14;100.00;101134.28;5092157;28;20098;-53
2023/08/04 06:17:35;;;;;;;8.00;3.30;;;;;;;16.16;100.00;101112.97;5092164;28;20039;-52
2023/08/04 06:20:00;;;;;;;6.63;3.30;;;;;;;16.33;100.00;101123.59;5091989;28;20097;-50
2023/08/04 06:22:27;;;;;;;7.57;3.13;;;;;;;16.46;100.00;101139.75;5091414;28;20048;-52
2023/08/04 06:24:52;;;;;;;10.20;3.17;;;;;;;16.11;100.00;101075.19;5092192;28;20078;-53
2023/08/04 06:27:18;;;;;;;8.90;2.45;;;;;;;16.66;100.00;101139.63;5074012;28;20483;-55
2023/08/04 06:29:43;;;;;;;5.90;2.45;;;;;;;16.64;100.00;101129.03;5091970;28;20119;-56
2023/08/04 06:32:09;;;;;;;9.07;2.83;;;;;;;16.78;100.00;101142.47;5091916;28;20036;-54
2023/08/04 06:34:34;;;;;;;7.47;1.90;;;;;;;16.78;100.00;101146.94;5091704;28;20032;-53
2023/08/04 06:36:59;;;;;;;4.70;2.50;;;;;;;16.83;100.00;101160.84;5092225;28;20035;-54
2023/08/04 06:39:24;;;;;;;4.22;1.88;;;;;;;16.76;100.00;101147.00;5075650;28;20036;-54
2023/08/04 06:41:50;;;;;;;6.60;2.25;;;;;;;16.82;100.00;101156.44;5091788;28;20032;-52
2023/08/04 06:44:15;;;;;;;6.38;2.30;;;;;;;16.85;100.00;101166.94;5091865;28;20039;-55
2023/08/04 06:46:41;;;;;;;6.28;2.20;;;;;;;16.56;100.00;101115.31;5092312;28;20040;-55
2023/08/04 06:49:06;;;;;;;8.18;3.10;;;;;;;16.65;100.00;101119.28;5091985;28;20502;-53
2023/08/04 06:51:31;;;;;;;7.00;2.05;;;;;;;16.92;100.00;101132.91;5091986;28;20032;-52
2023/08/04 06:53:57;;;;;;;7.72;3.05;;;;;;;17.22;100.00;101161.34;5091800;28;20480;-52
2023/08/04 06:56:22;;;;;;;11.90;2.80;;;;;;;17.08;100.00;101117.81;5091069;28;20039;-54
2023/08/04 06:58:47;;;;;;;7.10;2.35;;;;;;;17.22;100.00;101131.25;5091677;28;20037;-54
2023/08/04 07:01:13;;;;;;;9.73;2.53;;;;;;;17.13;100.00;101131.75;5091406;28;20043;-49
2023/08/04 07:03:38;;;;;;;5.43;2.17;;;;;;;17.06;100.00;101127.69;5073645;28;20479;-53
2023/08/04 07:06:04;;;;;;;8.70;2.40;;;;;;;17.36;100.00;101200.53;5090632;28;20079;-52
2023/08/04 07:08:29;;;;;;;8.30;2.40;;;;;;;17.36;100.00;101197.84;5093943;28;20036;-55
2023/08/04 07:10:54;;;;;;;7.72;2.42;;;;;;;17.35;100.00;101194.31;5095328;28;20036;-54
2023/08/04 07:13:19;;;;;;;7.55;2.40;;;;;;;17.36;100.00;101205.84;5093049;28;20043;-55
2023/08/04 07:15:55;;;;;;;7.65;2.30;;;;;;;17.48;100.00;101209.63;5094686;28;20036;-55
2023/08/04 07:18:21;;;;;;;7.93;2.40;;;;;;;17.56;100.00;101200.31;5095394;28;20038;-52
2023/08/04 07:20:46;;;;;;;11.02;3.53;;;;;;;17.70;100.00;101207.50;5095787;28;20119;-55
2023/08/04 07:23:11;;;;;;;10.93;3.60;;;;;;;17.43;100.00;101149.53;5094720;28;20083;-51
2023/08/04 07:25:37;;;;;;;6.20;2.25;;;;;;;17.87;100.00;101202.09;5076858;28;20083;-55
2023/08/04 07:28:03;;;;;;;8.60;2.20;;;;;;;18.04;100.00;101182.50;5094061;28;20047;-52
2023/08/04 07:30:29;;;;;;;5.55;1.92;;;;;;;17.92;100.00;101168.09;5077103;28;20032;-55
2023/08/04 07:32:54;;;;;;;6.95;2.33;;;;;;;18.27;100.00;101230.00;5094675;28;20039;-55
2023/08/04 07:35:20;;;;;;;8.52;2.42;;;;;;;18.10;100.00;101235.41;5076533;28;20036;-55
2023/08/04 07:37:45;;;;;;;6.38;2.30;;;;;;;17.99;100.00;101174.78;5095065;28;20085;-54
2023/08/04 07:40:11;;;;;;;8.38;2.40;;;;;;;18.51;100.00;101167.25;5094688;28;20032;-54
2023/08/04 07:42:36;;;;;;;7.32;1.88;;;;;;;18.97;100.00;101218.69;5094522;28;20115;-54
2023/08/04 07:45:02;;;;;;;5.32;2.00;;;;;;;19.51;100.00;101244.66;5076257;28;20522;-53
2023/08/04 07:47:27;;;;;;;7.70;2.10;;;;;;;19.48;100.00;101201.25;5093858;28;20475;-51
2023/08/04 07:49:52;;;;;;;4.38;1.90;;;;;;;19.28;100.00;101199.81;5094215;28;20494;-56
2023/08/04 07:52:18;;;;;;;5.75;2.10;;;;;;;19.20;100.00;101251.97;5076448;28;20117;-51
2023/08/04 07:54:43;;;;;;;6.13;1.65;;;;;;;18.70;100.00;101263.00;5059995;28;20141;-55
2023/08/04 07:57:09;;;;;;;8.23;2.05;;;;;;;18.09;100.00;101201.75;5094618;28;20048;-52
2023/08/04 07:59:34;;;;;;;5.95;1.42;;;;;;;17.93;100.00;101204.41;5093996;28;20024;-54
2023/08/04 08:01:59;;;;;;;4.38;1.88;;;;;;;17.76;100.00;101202.72;5075968;28;20115;-51
2023/08/04 08:04:25;;;;;;;8.88;2.10;;;;;;;18.02;100.00;101265.16;5093421;28;20058;-52
2023/08/04 08:06:50;;;;;;;6.63;1.88;;;;;;;17.68;100.00;101196.97;5094183;28;20073;-52
2023/08/04 08:09:15;;;;;;;7.50;1.77;;;;;;;18.30;100.00;101269.78;5093718;28;20039;-54
2023/08/04 08:11:40;;;;;;;5.28;2.25;;;;;;;17.93;100.00;101204.41;5093719;28;20089;-53
2023/08/04 08:14:06;;;;;;;5.63;2.63;;;;;;;17.98;100.00;101210.31;5075678;28;20043;-56
2023/08/04 08:16:31;;;;;;;7.82;1.92;;;;;;;18.15;100.00;101206.72;5094233;28;20451;-53
2023/08/04 08:18:56;;;;;;;5.28;1.58;;;;;;;18.59;100.00;101278.78;5093717;28;20050;-56
2023/08/04 08:21:22;;;;;;;4.30;1.40;;;;;;;18.80;100.00;101288.16;5092744;28;20028;-55
2023/08/04 08:23:47;;;;;;;3.95;1.45;;;;;;;19.17;100.00;101287.72;5075363;28;20036;-56
2023/08/04 08:26:13;;;;;;;4.80;2.00;;;;;;;19.85;100.00;101290.59;5093918;28;20032;-53
2023/08/04 08:28:38;;;;;;;4.38;1.30;;;;;;;20.46;100.00;101306.22;5093576;28;20043;-54
2023/08/04 08:31:04;;;;;;;3.85;1.40;;;;;;;21.37;100.00;101308.88;5094248;28;20043;-53
2023/08/04 08:33:29;;;;;;;3.35;1.23;;;;;;;21.90;100.00;101315.84;5093485;28;20052;-54
2023/08/04 08:35:55;;;;;;;3.80;1.63;;;;;;;21.73;100.00;101270.59;5074894;28;20036;-55
2023/08/04 08:38:20;;;;;;;4.40;1.05;;;;;;;21.77;100.00;101280.16;5075282;28;20024;-55
2023/08/04 08:40:49;;;;;;;4.00;1.23;;;;;;;22.17;100.00;101331.75;5093503;28;20047;-56
2023/08/04 08:43:15;;;;;;;2.35;1.00;;;;;;;22.25;100.00;101311.44;5093238;28;20028;-57
2023/08/04 08:45:42;;;;;;;3.03;1.70;;;;;;;22.47;100.00;101334.88;5075329;28;20379;-55
2023/08/04 08:48:08;;;;;;;6.45;1.55;;;;;;;22.52;100.00;101337.19;5093366;28;20121;-58
2023/08/04 08:50:34;;;;;;;5.80;1.15;;;;;;;22.51;100.00;101339.03;5074476;28;20066;-57
2023/08/04 08:53:08;;;;;;;6.80;2.03;;;;;;;22.52;100.00;101339.88;5093369;28;20411;-53
2023/08/04 08:55:34;;;;;;;4.68;0.88;;;;;;;22.57;100.00;101357.34;5093362;28;20497;-52
2023/08/04 08:58:00;;;;;;;4.13;1.48;;;;;;;22.74;100.00;101359.66;5092973;28;20043;-55
2023/08/04 09:00:25;;;;;;;3.05;1.60;;;;;;;22.36;100.00;101350.88;5058739;28;20059;-52
2023/08/04 09:02:51;;;;;;;2.50;1.35;;;;;;;21.97;100.00;101351.97;5075156;28;20123;-55
2023/08/04 09:05:16;;;;;;;2.38;1.00;;;;;;;21.85;100.00;101350.13;5093132;28;20032;-51
2023/08/04 09:07:42;;;;;;;2.95;1.27;;;;;;;22.00;100.00;101345.53;5092900;28;20044;-56
2023/08/04 09:10:08;;;;;;;5.57;1.05;;;;;;;21.97;100.00;101360.00;5074352;28;20042;-53
2023/08/04 09:12:34;;;;;;;4.50;1.10;;;;;;;22.23;100.00;101356.31;5074583;28;20032;-54
2023/08/04 09:15:01;;;;;;;2.63;1.00;;;;;;;22.71;100.00;101370.63;5074721;28;20032;-56
2023/08/04 09:17:34;;;;;;;3.83;1.15;;;;;;;22.64;100.00;101353.28;5074897;28;20035;-55
2023/08/04 09:20:02;;;;;;;4.72;1.20;;;;;;;21.52;100.00;101283.69;5092858;28;20085;-54
2023/08/04 09:22:27;;;;;;;4.63;1.77;;;;;;;20.88;100.00;101300.66;5074601;28;20449;-51
2023/08/04 09:24:59;;;;;;;4.70;1.40;;;;;;;20.12;100.00;101305.72;5074598;28;20032;-54
2023/08/04 09:27:33;;;;;;;3.72;1.40;;;;;;;19.93;100.00;101323.88;5092525;28;20039;-54
2023/08/04 09:30:00;;;;;;;5.70;1.30;;;;;;;19.82;100.00;101350.41;5074439;28;20028;-53
2023/08/04 09:32:26;;;;;;;6.50;1.88;;;;;;;19.53;100.00;101340.66;5074427;28;20537;-56
2023/08/04 09:35:02;;;;;;;5.05;1.50;;;;;;;19.44;100.00;101343.94;5092469;28;20063;-53
2023/08/04 09:37:31;;;;;;;7.15;1.52;;;;;;;19.38;100.00;101349.59;5092488;28;20077;-57
2023/08/04 09:39:56;;;;;;;5.20;1.45;;;;;;;19.88;100.00;101333.97;5104066;27;20516;-55
2023/08/04 09:42:21;;;;;;;3.03;1.35;;;;;;;20.28;100.00;101328.81;5091411;28;20150;-55
2023/08/04 09:44:52;;;;;;;4.50;1.50;;;;;;;20.49;100.00;101293.47;5080727;28;20398;-54
2023/08/04 09:47:17;;;;;;;2.60;1.23;;;;;;;20.74;100.00;101301.59;5078753;28;20032;-56
2023/08/04 09:49:42;;;;;;;2.45;1.10;;;;;;;21.16;100.00;101308.53;5057589;28;20506;-54
2023/08/04 09:52:08;;;;;;;4.13;1.50;;;;;;;21.79;100.00;101313.03;5101919;28;20132;-54
2023/08/04 09:54:33;;;;;;;4.20;1.38;;;;;;;22.71;100.00;101388.53;5111772;28;20044;-55
2023/08/04 09:56:59;;;;;;;2.88;1.05;;;;;;;22.69;100.00;101336.81;5094220;28;20035;-52
2023/08/04 09:59:24;;;;;;;2.05;0.90;;;;;;;21.96;100.00;101327.94;5112706;28;20051;-56
2023/08/04 10:01:50;;;;;;;7.15;1.60;;;;;;;21.59;100.00;101311.78;5094371;28;20101;-54
2023/08/04 10:04:15;;;;;;;8.80;1.85;;;;;;;22.54;100.00;101383.53;5087287;28;20042;-57
2023/08/04 10:06:41;;;;;;;3.30;1.10;;;;;;;23.63;100.00;101380.63;5073989;28;20450;-54
2023/08/04 10:09:08;;;;;;;1.10;0.57;;;;;;;24.17;100.00;101384.31;5103932;28;20051;-56
2023/08/04 10:11:33;;;;;;;1.55;0.73;;;;;;;23.80;100.00;101390.88;5100880;28;20059;-53
2023/08/04 10:13:58;;;;;;;2.17;0.80;;;;;;;23.76;100.00;101400.19;5112273;28;20066;-52
2023/08/04 10:16:34;;;;;;;3.70;1.08;;;;;;;23.27;100.00;101397.72;5112231;28;20035;-55
2023/08/04 10:19:02;;;;;;;3.20;0.70;;;;;;;23.05;100.00;101362.72;5092989;28;20042;-55
2023/08/04 10:21:33;;;;;;;1.73;0.77;;;;;;;22.87;100.00;101348.88;5110610;28;20470;-51
2023/08/04 10:23:58;;;;;;;0.88;0.60;;;;;;;22.44;100.00;101337.78;5093198;28;20032;-53
2023/08/04 10:26:24;;;;;;;5.28;1.63;;;;;;;22.75;100.00;101347.97;5091833;28;20044;-53
2023/08/04 10:29:05;;;;;;;3.80;0.90;;;;;;;23.58;100.00;101413.22;5099248;28;20380;-55
2023/08/04 10:31:52;;;;;;;2.15;0.85;;;;;;;23.68;100.00;101421.41;5097321;28;20118;-55
2023/08/04 10:34:26;;;;;;;2.28;0.90;;;;;;;24.08;100.00;101402.03;5106057;28;20482;-53
2023/08/04 10:36:57;;;;;;;4.63;1.10;;;;;;;24.47;100.00;101432.13;5094286;28;20111;-52
2023/08/04 10:39:30;;;;;;;5.35;1.00;;;;;;;23.83;100.00;101417.53;5075260;28;20036;-55
2023/08/04 10:41:56;;;;;;;2.15;0.70;;;;;;;23.35;100.00;101360.38;5092090;28;20032;-50
2023/08/04 10:44:30;;;;;;;2.03;0.70;;;;;;;24.43;100.00;101404.59;5107482;28;20093;-55
2023/08/04 10:47:00;;;;;;;1.25;1.00;;;;;;;24.85;100.00;101359.84;5077964;28;20028;-52
2023/08/04 10:49:26;;;;;;;2.03;0.82;;;;;;;24.51;100.00;101374.38;5096701;28;20059;-55
2023/08/04 10:51:52;;;;;;;4.72;1.17;;;;;;;24.46;100.00;101355.06;5115838;28;20058;-52
2023/08/04 10:54:19;;;;;;;6.65;1.63;;;;;;;25.39;100.00;101365.09;5115691;28;20392;-52
2023/08/04 10:56:47;;;;;;;4.32;1.02;;;;;;;24.48;100.00;101358.47;5096318;28;20093;-51
2023/08/04 10:59:12;;;;;;;4.78;1.45;;;;;;;23.79;100.00;101370.38;5116349;28;20526;-55
2023/08/04 11:01:38;;;;;;;3.00;0.80;;;;;;;23.74;100.00;101420.94;5115058;28;20120;-54
2023/08/04 11:04:03;;;;;;;3.47;0.70;;;;;;;23.76;100.00;101376.00;5115768;28;20043;-53
2023/08/04 11:06:29;;;;;;;4.22;0.73;;;;;;;23.80;100.00;101377.44;5115791;28;20592;-54
2023/08/04 11:08:55;;;;;;;2.55;0.77;;;;;;;24.09;100.00;101432.47;5115593;28;20084;-58